Time;durP1;ratioP1;P1;durP2;ratioP2;P2;SDS_P1;SDS_P2;PMS_P1;PMS_P2;Temp;Humidity;BMP_temperature;BMP_pressure;BME280_temperature;BME280_humidity;BME280_pressure;Samples;Min_cycle;Max_cycle;Signal;HPM_P1;HPM_P2
2022/02/25 00:00:06;;;;;;;7.43;3.17;;;;;;;-0.56;57.79;100375.78;5072798;28;20591;-65
2022/02/25 00:02:32;;;;;;;6.05;3.40;;;;;;;-0.66;58.02;100366.41;5055633;28;20129;-66
2022/02/25 00:04:57;;;;;;;6.30;3.40;;;;;;;-0.64;57.85;100375.97;5072156;28;20059;-65
2022/02/25 00:07:23;;;;;;;7.07;3.45;;;;;;;-0.66;58.17;100377.78;5072937;28;20044;-65
2022/02/25 00:09:48;;;;;;;6.07;3.22;;;;;;;-0.70;58.20;100364.78;5054675;28;20025;-65
2022/02/25 00:12:14;;;;;;;10.18;3.30;;;;;;;-0.73;58.46;100366.56;5071952;28;20025;-64
2022/02/25 00:14:39;;;;;;;7.45;3.40;;;;;;;-0.77;58.74;100375.44;5072656;28;20024;-64
2022/02/25 00:17:05;;;;;;;7.95;3.78;;;;;;;-0.78;59.04;100370.22;5072437;28;20025;-65
2022/02/25 00:19:30;;;;;;;9.20;3.65;;;;;;;-0.81;59.21;100368.53;5072488;28;20036;-65
2022/02/25 00:21:56;;;;;;;6.20;3.42;;;;;;;-0.80;58.92;100370.25;5071871;28;20127;-66
2022/02/25 00:24:21;;;;;;;8.20;4.10;;;;;;;-0.80;59.45;100366.78;5072006;28;20528;-65
2022/02/25 00:26:47;;;;;;;8.07;4.35;;;;;;;-0.82;59.04;100364.16;5072337;28;20103;-65
2022/02/25 00:29:12;;;;;;;6.88;3.67;;;;;;;-0.79;59.85;100368.50;5072318;28;20381;-64
2022/02/25 00:31:38;;;;;;;5.53;3.70;;;;;;;-0.80;59.85;100362.34;5072000;28;20032;-66
2022/02/25 00:34:03;;;;;;;7.00;4.00;;;;;;;-0.90;59.58;100345.09;5071818;28;20086;-67
2022/02/25 00:36:29;;;;;;;8.02;4.43;;;;;;;-0.89;59.63;100354.72;5071857;28;20030;-65
2022/02/25 00:38:54;;;;;;;7.55;3.45;;;;;;;-0.81;59.69;100351.91;5071665;28;20112;-66
2022/02/25 00:41:20;;;;;;;7.30;3.90;;;;;;;-0.83;59.79;100354.56;5071177;28;20048;-66
2022/02/25 00:43:45;;;;;;;10.15;4.20;;;;;;;-0.82;59.69;100355.44;5071527;28;20028;-65
2022/02/25 00:46:11;;;;;;;8.02;3.88;;;;;;;-0.83;59.82;100351.91;5071406;28;20028;-63
2022/02/25 00:48:37;;;;;;;7.90;4.05;;;;;;;-0.85;60.08;100350.22;5071787;28;20105;-65
2022/02/25 00:51:02;;;;;;;10.73;4.22;;;;;;;-0.80;59.92;100353.63;5071196;28;20100;-65
2022/02/25 00:53:27;;;;;;;7.93;4.82;;;;;;;-0.87;60.02;100342.38;5071575;28;20090;-66
2022/02/25 00:55:53;;;;;;;8.43;3.95;;;;;;;-0.84;60.34;100337.06;5071319;28;20039;-66
2022/02/25 00:58:20;;;;;;;7.10;3.80;;;;;;;-1.32;59.50;100265.50;5071136;28;20477;-64
2022/02/25 01:00:45;;;;;;;7.47;3.80;;;;;;;-0.85;60.06;100340.59;5071316;28;20341;-65
2022/02/25 01:03:12;;;;;;;7.22;3.65;;;;;;;-0.81;60.07;100344.84;5071268;28;20458;-62
2022/02/25 01:05:38;;;;;;;7.88;4.03;;;;;;;-0.81;60.64;100336.97;5071384;28;20132;-65
2022/02/25 01:08:07;;;;;;;9.00;4.60;;;;;;;-0.73;59.73;100340.25;5071407;28;20039;-65
2022/02/25 01:10:34;;;;;;;9.25;4.65;;;;;;;-0.75;60.12;100341.22;5055155;28;20470;-65
2022/02/25 01:13:00;;;;;;;8.48;4.38;;;;;;;-0.75;60.42;100335.97;5070746;28;20036;-67
2022/02/25 01:15:26;;;;;;;8.35;3.88;;;;;;;-0.77;60.35;100332.50;5071040;28;20103;-65
2022/02/25 01:17:52;;;;;;;9.13;4.35;;;;;;;-0.80;60.08;100328.19;5071615;28;20028;-65
2022/02/25 01:20:18;;;;;;;8.32;3.80;;;;;;;-0.77;60.56;100335.97;5070517;28;20035;-64
2022/02/25 01:22:44;;;;;;;8.77;4.68;;;;;;;-0.76;60.92;100340.34;5070632;28;20123;-64
2022/02/25 01:25:11;;;;;;;10.23;4.18;;;;;;;-0.78;60.74;100338.66;5071409;28;20083;-64
2022/02/25 01:27:38;;;;;;;6.35;3.80;;;;;;;-0.79;60.73;100335.16;5071308;28;20021;-65
2022/02/25 01:30:09;;;;;;;7.70;3.80;;;;;;;-0.77;60.69;100343.88;5070205;28;20025;-66
2022/02/25 01:32:34;;;;;;;7.95;4.05;;;;;;;-0.78;61.24;100346.56;5054925;28;20446;-64
2022/02/25 01:35:00;;;;;;;6.85;3.90;;;;;;;-0.70;60.73;100339.31;5053306;28;20035;-64
2022/02/25 01:37:26;;;;;;;9.55;4.32;;;;;;;-0.73;60.74;100339.41;5069265;28;20111;-62
2022/02/25 01:39:53;;;;;;;8.00;3.78;;;;;;;-0.66;61.19;100334.88;5070659;28;20470;-64
2022/02/25 01:42:18;;;;;;;9.40;4.35;;;;;;;-0.66;61.20;100332.22;5052647;28;20056;-65
2022/02/25 01:44:44;;;;;;;7.63;4.18;;;;;;;-0.66;61.08;100335.72;5070938;28;20074;-63
2022/02/25 01:47:11;;;;;;;7.85;3.95;;;;;;;-0.61;60.26;100333.81;5070561;28;20024;-64
2022/02/25 01:49:37;;;;;;;8.13;4.03;;;;;;;-0.68;60.61;100320.91;5070586;28;20032;-65
2022/02/25 01:52:11;;;;;;;6.97;4.13;;;;;;;-0.60;60.48;100334.69;5070734;28;20032;-65
2022/02/25 01:54:37;;;;;;;11.27;4.32;;;;;;;-0.67;60.68;100327.88;5055358;28;20466;-65
2022/02/25 01:57:04;;;;;;;7.53;4.22;;;;;;;-0.64;60.70;100333.06;5069942;28;20031;-65
2022/02/25 01:59:31;;;;;;;7.00;3.72;;;;;;;-0.61;60.39;100328.56;5070466;28;20436;-66
2022/02/25 02:01:58;;;;;;;7.38;4.05;;;;;;;-0.63;60.74;100329.53;5052489;28;20381;-64
2022/02/25 02:04:25;;;;;;;9.10;4.25;;;;;;;-0.65;61.26;100331.31;5070503;28;20060;-65
2022/02/25 02:06:51;;;;;;;7.38;3.95;;;;;;;-0.68;61.49;100320.91;5069891;28;20024;-65
2022/02/25 02:09:18;;;;;;;7.38;3.97;;;;;;;-0.66;61.16;100332.22;5070239;28;20028;-62
2022/02/25 02:11:46;;;;;;;8.02;4.35;;;;;;;-0.67;61.40;100328.72;5070463;28;20493;-64
2022/02/25 02:14:17;;;;;;;9.18;4.38;;;;;;;-0.66;61.26;100332.22;5070566;28;20451;-62
2022/02/25 02:16:45;;;;;;;8.43;3.95;;;;;;;-0.69;61.70;100338.41;5069917;28;20038;-63
2022/02/25 02:19:10;;;;;;;10.27;4.90;;;;;;;-0.67;61.32;100338.41;5070407;28;20037;-64
2022/02/25 02:21:42;;;;;;;9.32;4.65;;;;;;;-0.64;61.23;100338.31;5070565;28;20063;-66
2022/02/25 02:24:08;;;;;;;6.30;4.35;;;;;;;-0.66;61.17;100337.50;5070961;28;20487;-64
2022/02/25 02:26:34;;;;;;;7.70;4.50;;;;;;;-0.66;61.45;100333.09;5069934;28;20036;-65
2022/02/25 02:29:00;;;;;;;8.07;4.28;;;;;;;-0.68;61.02;100344.56;5069793;28;20024;-65
2022/02/25 02:31:26;;;;;;;7.82;4.30;;;;;;;-0.85;61.30;100316.03;5070453;28;20035;-64
2022/02/25 02:33:51;;;;;;;9.00;4.40;;;;;;;-0.68;61.61;100323.53;5052134;28;20448;-66
2022/02/25 02:36:17;;;;;;;11.23;4.50;;;;;;;-0.67;61.59;100322.63;5051213;28;20036;-67
2022/02/25 02:38:43;;;;;;;9.00;4.30;;;;;;;-0.65;61.34;100331.31;5069670;28;20036;-65
2022/02/25 02:41:08;;;;;;;11.40;4.97;;;;;;;-0.76;62.09;100318.47;5070212;28;20036;-65
2022/02/25 02:43:35;;;;;;;9.75;4.85;;;;;;;-0.70;62.33;100334.06;5073876;28;20355;-66
2022/02/25 02:46:00;;;;;;;9.30;4.53;;;;;;;-0.69;62.12;100330.53;5073540;28;20099;-65
2022/02/25 02:48:26;;;;;;;8.20;4.80;;;;;;;-0.69;62.10;100330.53;5073401;28;20029;-66
2022/02/25 02:50:53;;;;;;;11.98;5.15;;;;;;;-0.70;61.94;100325.34;5073705;28;20032;-66
2022/02/25 02:53:18;;;;;;;7.35;4.50;;;;;;;-0.75;62.20;100326.28;5073442;28;20489;-66
2022/02/25 02:55:45;;;;;;;10.48;4.93;;;;;;;-0.79;62.68;100319.38;5073221;28;20032;-66
2022/02/25 02:58:12;;;;;;;10.48;4.75;;;;;;;-0.83;62.85;100311.63;5074012;28;20038;-63
2022/02/25 03:00:39;;;;;;;9.77;4.95;;;;;;;-0.83;62.65;100322.16;5073707;28;20025;-66
2022/02/25 03:03:06;;;;;;;9.13;4.93;;;;;;;-0.87;62.93;100327.47;5073113;28;20024;-65
2022/02/25 03:05:32;;;;;;;11.52;5.32;;;;;;;-0.89;63.11;100317.91;5073390;28;20036;-66
2022/02/25 03:07:57;;;;;;;8.23;4.78;;;;;;;-0.88;62.98;100319.63;5073335;28;20074;-66
2022/02/25 03:10:23;;;;;;;7.95;5.15;;;;;;;-0.96;63.10;100292.69;5073144;28;20054;-65
2022/02/25 03:12:49;;;;;;;9.75;5.13;;;;;;;-0.88;62.92;100315.22;5073588;28;20481;-65
2022/02/25 03:15:14;;;;;;;10.57;4.72;;;;;;;-0.89;63.10;100310.03;5073089;28;20435;-65
2022/02/25 03:17:41;;;;;;;9.02;5.13;;;;;;;-0.92;63.27;100302.22;5073579;28;20100;-65
2022/02/25 03:20:09;;;;;;;8.50;4.68;;;;;;;-0.97;62.83;100304.94;5073795;28;20056;-64
2022/02/25 03:22:34;;;;;;;9.77;5.20;;;;;;;-1.02;63.10;100310.31;5073159;28;20047;-64
2022/02/25 03:25:00;;;;;;;11.23;5.18;;;;;;;-1.06;63.30;100298.16;5072747;28;20029;-64
2022/02/25 03:27:28;;;;;;;9.80;4.85;;;;;;;-1.04;63.47;100301.59;5072780;28;20024;-65
2022/02/25 03:29:54;;;;;;;10.05;5.22;;;;;;;-1.07;63.11;100299.06;5073544;28;20124;-64
2022/02/25 03:32:20;;;;;;;11.77;5.93;;;;;;;-1.14;63.18;100283.47;5072719;28;20496;-64
2022/02/25 03:34:46;;;;;;;10.07;5.20;;;;;;;-1.08;63.34;100292.09;5072534;28;20100;-65
2022/02/25 03:37:11;;;;;;;12.20;5.90;;;;;;;-1.12;63.59;100300.06;5071893;28;20063;-63
2022/02/25 03:39:37;;;;;;;12.55;6.03;;;;;;;-1.12;63.72;100302.69;5073615;28;20081;-65
2022/02/25 03:42:03;;;;;;;9.65;5.47;;;;;;;-1.16;63.93;100299.31;5072586;28;20032;-66
2022/02/25 03:44:28;;;;;;;10.02;6.20;;;;;;;-1.18;63.68;100295.84;5072352;28;20118;-67
2022/02/25 03:46:54;;;;;;;10.80;5.75;;;;;;;-1.22;63.96;100299.44;5072829;28;20044;-68
2022/02/25 03:49:19;;;;;;;11.02;6.07;;;;;;;-1.30;64.39;100286.50;5073239;28;20117;-66
2022/02/25 03:51:45;;;;;;;10.85;6.43;;;;;;;-1.26;64.62;100295.16;5072275;28;20398;-65
2022/02/25 03:54:11;;;;;;;11.13;6.40;;;;;;;-1.26;64.81;100289.91;5071823;28;20488;-65
2022/02/25 03:56:37;;;;;;;12.00;6.05;;;;;;;-1.31;64.92;100284.78;5072940;28;20025;-66
2022/02/25 03:59:03;;;;;;;11.45;6.22;;;;;;;-1.39;65.31;100276.19;5072383;28;20116;-66
2022/02/25 04:01:29;;;;;;;16.63;7.40;;;;;;;-1.35;65.26;100289.22;5072221;28;20120;-67
2022/02/25 04:03:55;;;;;;;16.38;6.57;;;;;;;-1.33;65.38;100300.56;5072042;28;20115;-66
2022/02/25 04:06:21;;;;;;;13.60;7.20;;;;;;;-1.34;65.73;100290.94;5072444;28;20040;-67
2022/02/25 04:08:46;;;;;;;15.10;7.35;;;;;;;-1.35;65.36;100283.97;5072644;28;20386;-66
2022/02/25 04:11:12;;;;;;;14.75;7.20;;;;;;;-1.35;65.39;100281.34;5072328;28;20020;-64
2022/02/25 04:13:39;;;;;;;16.55;6.88;;;;;;;-1.36;65.65;100281.38;5072245;28;20035;-65
2022/02/25 04:16:05;;;;;;;13.57;7.22;;;;;;;-1.37;65.76;100280.53;5072236;28;20059;-66
2022/02/25 04:18:31;;;;;;;14.48;7.38;;;;;;;-1.34;65.64;100277.81;5055889;28;20024;-67
2022/02/25 04:20:57;;;;;;;14.50;7.22;;;;;;;-1.43;65.87;100264.91;5071579;28;20109;-66
2022/02/25 04:23:22;;;;;;;14.65;7.85;;;;;;;-1.33;65.61;100290.06;5071573;28;20028;-65
2022/02/25 04:25:48;;;;;;;15.15;7.57;;;;;;;-1.57;65.66;100236.34;5072111;28;20036;-68
2022/02/25 04:28:14;;;;;;;15.43;7.50;;;;;;;-1.30;65.92;100281.25;5071954;28;20032;-67
2022/02/25 04:30:40;;;;;;;19.10;8.10;;;;;;;-1.26;65.74;100276.75;5071729;28;20060;-66
2022/02/25 04:33:06;;;;;;;15.50;8.25;;;;;;;-1.27;65.89;100290.81;5071485;28;20020;-65
2022/02/25 04:35:32;;;;;;;18.42;8.45;;;;;;;-1.46;65.48;100244.84;5071202;28;20115;-65
2022/02/25 04:37:57;;;;;;;17.15;9.30;;;;;;;-1.19;65.92;100284.47;5070984;28;20116;-66
2022/02/25 04:40:23;;;;;;;15.18;8.48;;;;;;;-1.21;65.27;100270.50;5071687;28;20042;-65
2022/02/25 04:42:49;;;;;;;18.17;8.68;;;;;;;-1.13;65.97;100291.34;5071446;28;20168;-66
2022/02/25 04:45:14;;;;;;;15.57;8.52;;;;;;;-1.09;65.49;100279.84;5071122;28;20401;-66
2022/02/25 04:47:41;;;;;;;18.20;8.88;;;;;;;-1.01;65.79;100277.03;5071855;28;20024;-67
2022/02/25 04:50:08;;;;;;;16.42;9.18;;;;;;;-0.96;65.59;100279.53;5071388;28;20070;-66
2022/02/25 04:52:34;;;;;;;17.02;8.60;;;;;;;-1.18;65.35;100232.78;5071586;28;20523;-67
2022/02/25 04:55:00;;;;;;;17.35;8.65;;;;;;;-0.84;65.44;100276.59;5070953;28;20028;-67
2022/02/25 04:57:25;;;;;;;17.35;9.00;;;;;;;-0.74;65.36;100285.94;5071236;28;20373;-67
2022/02/25 04:59:51;;;;;;;23.25;9.63;;;;;;;0.04;63.89;100280.31;5071604;28;20036;-66
2022/02/25 05:02:16;;;;;;;16.80;8.88;;;;;;;1.53;59.46;100289.56;5070876;28;20032;-66
2022/02/25 05:04:42;;;;;;;20.42;8.80;;;;;;;2.98;55.30;100287.53;5070239;28;20040;-64
2022/02/25 05:07:07;;;;;;;17.75;9.05;;;;;;;3.96;51.74;100278.00;5071449;28;20021;-66
2022/02/25 05:09:33;;;;;;;21.98;9.82;;;;;;;4.48;50.13;100291.56;5071099;28;20035;-65
2022/02/25 05:11:59;;;;;;;19.33;9.18;;;;;;;4.67;49.57;100281.78;5070887;28;20028;-65
2022/02/25 05:22:36;;;;;;;17.08;9.48;;;;;;;3.57;51.32;100232.06;5055103;28;20048;-68
2022/02/25 05:25:02;;;;;;;18.40;9.68;;;;;;;3.18;53.27;100267.31;5071082;28;20094;-65
2022/02/25 05:27:28;;;;;;;16.65;9.95;;;;;;;3.71;53.65;100271.16;5070776;28;20078;-66
2022/02/25 05:29:54;;;;;;;15.02;9.00;;;;;;;5.73;48.50;100261.38;5070447;28;20025;-66
2022/02/25 05:32:20;;;;;;;18.73;9.82;;;;;;;7.87;43.57;100244.75;5070907;28;20043;-66
2022/02/25 05:34:45;;;;;;;17.02;9.43;;;;;;;9.50;39.86;100250.16;5070962;28;20397;-65
2022/02/25 05:37:11;;;;;;;17.23;9.73;;;;;;;10.85;37.33;100247.72;5070901;28;20035;-66
2022/02/25 05:39:36;;;;;;;19.15;8.75;;;;;;;12.07;34.82;100242.84;5052612;28;20485;-67
2022/02/25 05:42:03;;;;;;;15.65;9.05;;;;;;;13.17;32.79;100244.59;5070796;28;20401;-68
2022/02/25 05:44:28;;;;;;;16.63;9.20;;;;;;;13.96;31.26;100247.75;5052960;28;20036;-67
2022/02/25 05:46:53;;;;;;;15.60;9.88;;;;;;;14.71;29.94;100242.00;5052257;28;20428;-66
2022/02/25 05:49:19;;;;;;;21.05;9.05;;;;;;;15.53;28.67;100243.47;5070244;28;20036;-67
2022/02/25 05:51:44;;;;;;;15.48;9.60;;;;;;;16.04;27.59;100236.81;5070583;28;20029;-66
2022/02/25 05:54:10;;;;;;;14.93;9.35;;;;;;;16.72;26.68;100234.69;5070938;28;20029;-66
2022/02/25 05:56:35;;;;;;;21.40;10.35;;;;;;;17.45;25.46;100234.63;5070412;28;20104;-66
2022/02/25 05:59:01;;;;;;;16.02;10.63;;;;;;;17.92;24.80;100208.97;5069933;28;20374;-66
2022/02/25 06:01:26;;;;;;;16.13;10.15;;;;;;;18.80;23.56;100234.00;5070319;28;20029;-65
2022/02/25 06:03:53;;;;;;;19.67;10.45;;;;;;;19.54;22.67;100235.00;5070709;28;20026;-67
2022/02/25 06:06:19;;;;;;;18.17;10.77;;;;;;;19.99;21.84;100232.69;5070024;28;20534;-65
2022/02/25 06:08:44;;;;;;;18.15;11.15;;;;;;;20.47;21.16;100235.38;5069713;28;20142;-64
2022/02/25 06:11:10;;;;;;;23.05;11.30;;;;;;;21.17;20.37;100235.41;5069284;28;20105;-65
2022/02/25 06:13:35;;;;;;;17.85;10.60;;;;;;;21.58;19.70;100225.97;5068937;28;20063;-66
2022/02/25 06:16:01;;;;;;;15.10;11.02;;;;;;;22.15;19.04;100232.69;5069556;28;20028;-68
2022/02/25 06:18:26;;;;;;;16.70;10.93;;;;;;;22.61;18.55;100236.19;5071290;28;20463;-68
2022/02/25 06:20:52;;;;;;;17.05;11.93;;;;;;;23.27;17.85;100234.31;5071465;28;20036;-68
2022/02/25 06:23:21;;;;;;;19.88;11.98;;;;;;;23.81;17.32;100227.31;5071843;28;19920;-70
2022/02/25 06:25:48;;;;;;;15.27;11.65;;;;;;;24.07;17.19;100234.00;5072850;28;20036;-69
2022/02/25 06:28:14;;;;;;;20.88;11.65;;;;;;;24.13;16.49;100226.88;5053679;28;20395;-71
2022/02/25 06:30:41;;;;;;;13.25;11.30;;;;;;;24.02;16.75;100222.84;5065475;28;20031;-71
2022/02/25 06:33:07;;;;;;;22.85;11.27;;;;;;;24.53;16.33;100224.31;5071863;28;20024;-71
2022/02/25 06:35:33;;;;;;;18.30;10.75;;;;;;;24.76;16.23;100221.22;5072336;28;20446;-70
2022/02/25 06:37:59;;;;;;;15.43;10.23;;;;;;;24.61;16.21;100212.31;5072228;28;20028;-67
2022/02/25 06:40:25;;;;;;;17.63;10.48;;;;;;;24.66;15.62;100190.66;5072052;28;20408;-70
2022/02/25 06:42:52;;;;;;;14.75;10.18;;;;;;;25.05;15.44;100205.44;5072064;28;20081;-70
2022/02/25 06:45:19;;;;;;;15.52;10.52;;;;;;;25.22;15.50;100207.75;5055037;28;20032;-71
2022/02/25 06:47:45;;;;;;;15.95;10.43;;;;;;;25.50;14.93;100209.44;5073646;28;20111;-71
2022/02/25 06:50:10;;;;;;;15.10;10.40;;;;;;;25.90;14.60;100213.97;5073483;28;20085;-69
2022/02/25 06:52:36;;;;;;;12.93;11.05;;;;;;;26.16;14.24;100218.56;5073658;28;20385;-72
2022/02/25 06:55:02;;;;;;;13.02;11.10;;;;;;;26.08;14.17;100191.34;5073475;28;20132;-68
2022/02/25 06:57:28;;;;;;;15.93;10.50;;;;;;;26.41;13.93;100184.88;5073065;28;20067;-71
2022/02/25 06:59:54;;;;;;;15.93;11.07;;;;;;;26.83;13.70;100216.53;5072916;28;20427;-70
2022/02/25 07:02:20;;;;;;;15.13;10.77;;;;;;;27.11;13.79;100207.03;5072703;28;20038;-71
2022/02/25 07:04:45;;;;;;;15.07;11.63;;;;;;;27.39;13.56;100202.97;5073109;28;20040;-69
2022/02/25 07:07:11;;;;;;;14.85;10.68;;;;;;;27.58;12.94;100199.22;5073252;28;20039;-70
2022/02/25 07:09:36;;;;;;;22.38;11.40;;;;;;;27.41;12.94;100168.69;5073244;28;20414;-69
2022/02/25 07:12:02;;;;;;;14.60;10.63;;;;;;;27.80;12.90;100207.03;5072854;28;20386;-70
2022/02/25 07:14:28;;;;;;;14.27;10.77;;;;;;;27.77;12.69;100169.81;5072515;28;20115;-71
2022/02/25 07:16:54;;;;;;;14.65;11.13;;;;;;;28.16;12.19;100197.06;5072713;28;20429;-67
2022/02/25 07:19:19;;;;;;;16.55;10.65;;;;;;;28.47;12.32;100186.06;5073377;28;20033;-72
2022/02/25 07:21:45;;;;;;;17.08;11.77;;;;;;;28.16;12.36;100197.06;5073075;28;20048;-72
2022/02/25 07:24:10;;;;;;;18.27;10.73;;;;;;;28.14;12.57;100188.19;5052545;28;20052;-71
2022/02/25 07:26:36;;;;;;;14.57;10.90;;;;;;;28.04;12.41;100182.41;5072656;28;20020;-71
2022/02/25 07:29:02;;;;;;;19.08;10.45;;;;;;;27.72;12.54;100196.31;5054815;28;20456;-72
2022/02/25 07:31:28;;;;;;;14.52;10.38;;;;;;;27.55;12.82;100190.56;5073142;28;20138;-71
2022/02/25 07:33:53;;;;;;;13.85;9.77;;;;;;;27.57;12.61;100188.44;5072647;28;20182;-73
2022/02/25 07:36:19;;;;;;;15.15;10.10;;;;;;;27.14;13.06;100190.09;5072544;28;20024;-72
2022/02/25 07:38:44;;;;;;;16.88;9.65;;;;;;;27.05;12.96;100195.88;5073080;28;20025;-70
2022/02/25 07:41:10;;;;;;;14.57;10.07;;;;;;;26.71;13.31;100199.91;5073272;28;20020;-68
2022/02/25 07:43:35;;;;;;;15.18;10.32;;;;;;;26.52;13.27;100183.34;5072647;28;20029;-68
2022/02/25 07:46:01;;;;;;;12.30;9.23;;;;;;;26.41;13.54;100187.63;5072018;28;20119;-68
2022/02/25 07:48:26;;;;;;;15.43;9.73;;;;;;;26.15;13.26;100194.91;5070881;28;20029;-68
2022/02/25 07:50:52;;;;;;;12.00;9.27;;;;;;;25.85;13.73;100200.09;5072759;28;20450;-69
2022/02/25 07:53:19;;;;;;;12.27;9.52;;;;;;;25.50;13.72;100184.78;5072180;28;20036;-69
2022/02/25 07:55:45;;;;;;;15.20;9.63;;;;;;;24.90;14.37;100181.00;5072176;28;20385;-68
2022/02/25 07:58:12;;;;;;;13.13;10.02;;;;;;;23.11;15.49;100148.00;5072913;28;20036;-70
2022/02/25 08:00:38;;;;;;;14.63;9.75;;;;;;;21.10;17.45;100191.75;5072976;28;20048;-70
2022/02/25 08:03:04;;;;;;;16.63;10.30;;;;;;;18.53;20.20;100191.75;5071798;28;20433;-70
2022/02/25 08:05:31;;;;;;;16.75;10.20;;;;;;;16.29;22.69;100193.88;5072063;28;20060;-70
2022/02/25 08:07:57;;;;;;;16.35;10.07;;;;;;;14.16;25.58;100191.25;5072739;28;20073;-70
2022/02/25 08:10:24;;;;;;;15.05;10.23;;;;;;;12.71;28.14;100189.34;5072006;28;20029;-71
2022/02/25 08:12:49;;;;;;;18.67;10.18;;;;;;;11.49;29.98;100184.78;5071247;28;20117;-67
2022/02/25 08:15:15;;;;;;;16.05;10.27;;;;;;;10.59;31.16;100199.63;5067455;28;20032;-71
2022/02/25 08:17:41;;;;;;;18.70;10.68;;;;;;;9.72;32.75;100173.81;5064895;28;20189;-71
2022/02/25 08:20:08;;;;;;;17.02;10.82;;;;;;;9.13;33.82;100194.78;5072375;28;20111;-71
2022/02/25 08:22:34;;;;;;;15.85;10.07;;;;;;;8.53;34.63;100180.97;5071817;28;20044;-71
2022/02/25 08:25:00;;;;;;;14.68;9.57;;;;;;;8.11;35.67;100178.31;5072011;28;20063;-72
2022/02/25 08:27:25;;;;;;;12.82;9.30;;;;;;;7.76;36.76;100182.28;5071830;28;20450;-66
2022/02/25 08:29:51;;;;;;;15.40;9.90;;;;;;;7.64;36.56;100180.41;5071657;28;20024;-67
2022/02/25 08:32:17;;;;;;;15.57;9.32;;;;;;;7.55;37.20;100181.84;5069872;28;20043;-68
2022/02/25 08:34:42;;;;;;;19.95;9.50;;;;;;;7.38;37.13;100174.91;5070328;28;20025;-64
2022/02/25 08:37:08;;;;;;;17.75;8.82;;;;;;;7.32;37.60;100189.44;5061408;28;20371;-68
2022/02/25 08:39:34;;;;;;;19.15;9.45;;;;;;;7.32;37.01;100184.13;5061197;28;20031;-65
2022/02/25 08:42:00;;;;;;;18.00;8.63;;;;;;;7.28;37.16;100185.25;5071292;28;20838;-71
2022/02/25 08:44:25;;;;;;;14.23;9.13;;;;;;;7.32;37.18;100181.47;5071371;28;20036;-70
2022/02/25 08:46:51;;;;;;;14.32;8.77;;;;;;;7.17;37.10;100169.06;5071289;28;20434;-68
2022/02/25 08:49:17;;;;;;;12.15;8.35;;;;;;;7.01;37.97;100170.03;5071359;28;20030;-70
2022/02/25 08:51:43;;;;;;;14.35;8.60;;;;;;;6.89;37.73;100162.75;5071645;28;20037;-70
2022/02/25 08:54:12;;;;;;;12.55;8.40;;;;;;;6.85;38.04;100167.41;5060996;28;20425;-71
2022/02/25 08:56:39;;;;;;;16.90;8.90;;;;;;;6.79;38.12;100175.75;5070398;28;20465;-70
2022/02/25 08:59:05;;;;;;;14.93;8.98;;;;;;;6.80;38.24;100168.63;5071412;28;20056;-70
2022/02/25 09:01:32;;;;;;;18.88;8.23;;;;;;;6.83;38.25;100165.78;5070784;28;20067;-71
2022/02/25 09:04:01;;;;;;;12.98;8.73;;;;;;;6.79;38.56;100165.09;5053507;28;20108;-69
2022/02/25 09:06:28;;;;;;;11.10;7.53;;;;;;;6.63;38.49;100127.91;5070852;28;20036;-72
2022/02/25 09:08:54;;;;;;;12.02;8.13;;;;;;;6.74;38.21;100146.75;5070082;28;20032;-70
2022/02/25 09:11:20;;;;;;;14.80;7.95;;;;;;;6.70;38.52;100145.22;5070960;28;20043;-74
2022/02/25 09:13:46;;;;;;;18.02;7.95;;;;;;;6.58;38.70;100136.16;5070638;28;20036;-67
2022/02/25 09:16:11;;;;;;;16.25;8.27;;;;;;;6.60;38.82;100128.94;5071490;28;20039;-69
2022/02/25 09:18:37;;;;;;;11.45;7.72;;;;;;;6.59;38.84;100137.88;5053183;28;20441;-68
2022/02/25 09:21:04;;;;;;;12.60;8.18;;;;;;;6.55;39.13;100146.97;5070913;28;20088;-66
2022/02/25 09:23:31;;;;;;;12.90;8.20;;;;;;;6.49;38.96;100136.72;5070901;28;20133;-67
2022/02/25 09:25:57;;;;;;;16.63;7.38;;;;;;;6.53;38.75;100135.56;5071350;28;20024;-66
2022/02/25 09:28:24;;;;;;;13.35;7.00;;;;;;;6.19;38.63;100079.06;5070769;28;20029;-67
2022/02/25 09:30:50;;;;;;;10.95;6.78;;;;;;;6.32;38.69;100125.25;5070639;28;20446;-67
2022/02/25 09:33:16;;;;;;;14.32;7.57;;;;;;;6.27;38.99;100113.16;5070692;28;20028;-65
2022/02/25 09:35:41;;;;;;;14.13;6.75;;;;;;;6.32;38.72;100117.25;5050030;28;20033;-64
2022/02/25 09:38:07;;;;;;;12.82;6.70;;;;;;;6.23;39.31;100120.47;5065119;28;20040;-66
2022/02/25 09:40:33;;;;;;;14.35;7.00;;;;;;;6.18;38.73;100118.06;5067033;28;20039;-65
2022/02/25 09:42:59;;;;;;;11.48;6.60;;;;;;;6.22;38.67;100105.47;5065282;28;20385;-66
2022/02/25 09:45:25;;;;;;;11.57;6.72;;;;;;;6.21;39.09;100114.38;5063389;28;20028;-66
2022/02/25 09:47:51;;;;;;;17.58;6.78;;;;;;;6.30;39.05;100110.34;5070645;28;20033;-70
2022/02/25 09:50:19;;;;;;;11.75;7.03;;;;;;;6.40;38.77;100100.88;5069449;28;20025;-63
2022/02/25 09:52:45;;;;;;;12.90;7.18;;;;;;;6.37;38.21;100082.44;5054448;28;20032;-69
2022/02/25 09:55:20;;;;;;;13.18;7.43;;;;;;;6.48;38.74;100092.44;5071195;28;20047;-64
2022/02/25 09:57:46;;;;;;;11.70;7.15;;;;;;;6.54;38.62;100101.88;5070091;28;20040;-65
2022/02/25 10:00:12;;;;;;;13.43;6.80;;;;;;;6.46;38.22;100092.50;5070732;28;20085;-69
2022/02/25 10:02:43;;;;;;;10.45;6.55;;;;;;;6.50;38.45;100097.66;5069132;28;20107;-64
2022/02/25 10:05:13;;;;;;;15.95;7.35;;;;;;;6.45;38.52;100090.81;5070781;28;20481;-67
2022/02/25 10:07:39;;;;;;;10.05;6.63;;;;;;;6.52;38.21;100093.13;5070399;28;20416;-64
2022/02/25 10:10:06;;;;;;;9.95;6.13;;;;;;;6.29;38.09;100074.06;5070620;28;20381;-64
2022/02/25 10:12:32;;;;;;;10.98;6.43;;;;;;;6.32;38.58;100077.38;5070453;28;20036;-66
2022/02/25 10:14:59;;;;;;;11.25;6.50;;;;;;;6.26;38.78;100072.44;5070741;28;20399;-68
2022/02/25 10:17:26;;;;;;;11.25;6.45;;;;;;;6.33;38.60;100086.22;5070512;28;20024;-67
2022/02/25 10:19:52;;;;;;;9.27;5.90;;;;;;;6.33;39.07;100075.59;5070342;28;20075;-67
2022/02/25 10:22:30;;;;;;;9.00;5.90;;;;;;;6.41;38.47;100072.47;5070418;28;20120;-64
2022/02/25 10:24:58;;;;;;;9.95;5.80;;;;;;;6.39;38.40;100077.00;5055149;28;20517;-67
2022/02/25 10:27:37;;;;;;;9.98;5.55;;;;;;;6.22;37.98;100044.31;5070499;28;20365;-67
2022/02/25 10:30:13;;;;;;;11.07;5.95;;;;;;;6.32;38.38;100061.41;5070261;28;20043;-66
2022/02/25 10:32:41;;;;;;;8.07;5.35;;;;;;;6.23;38.22;100064.63;5058416;28;20032;-66
2022/02/25 10:35:29;;;;;;;10.20;5.55;;;;;;;6.34;38.72;100058.69;5069624;28;20103;-65
2022/02/25 10:37:56;;;;;;;9.57;5.50;;;;;;;6.34;37.85;100058.69;5060695;28;20029;-63
2022/02/25 10:40:23;;;;;;;9.25;5.40;;;;;;;6.22;37.88;100043.44;5067125;28;20049;-64
2022/02/25 10:42:48;;;;;;;8.52;5.18;;;;;;;6.21;37.95;100060.34;5069960;28;20389;-64
2022/02/25 10:45:29;;;;;;;10.52;5.43;;;;;;;6.32;37.42;100065.91;5064968;28;20036;-66
2022/02/25 10:48:00;;;;;;;9.13;5.13;;;;;;;6.14;38.21;100052.72;5064467;28;20086;-69
2022/02/25 10:50:26;;;;;;;11.70;5.47;;;;;;;6.06;38.56;100051.47;5067721;28;20035;-68
2022/02/25 10:52:53;;;;;;;12.60;4.32;;;;;;;6.07;37.92;100043.41;5068832;28;20392;-66
2022/02/25 10:55:22;;;;;;;8.20;4.07;;;;;;;6.13;37.87;100037.72;5058251;28;20028;-64
2022/02/25 10:57:50;;;;;;;7.25;4.03;;;;;;;6.16;38.08;100042.03;5069706;28;20462;-64
2022/02/25 11:00:17;;;;;;;11.27;4.60;;;;;;;6.16;37.33;100028.72;5070031;28;20056;-64
2022/02/25 11:02:47;;;;;;;9.27;4.40;;;;;;;6.18;37.79;100026.84;5049951;28;20131;-63
2022/02/25 11:05:26;;;;;;;8.05;4.43;;;;;;;6.29;37.31;100024.38;5060536;28;20016;-65
2022/02/25 11:08:00;;;;;;;8.35;4.38;;;;;;;6.24;37.43;100025.59;5073355;28;20440;-63
2022/02/25 11:10:31;;;;;;;11.02;4.47;;;;;;;6.23;37.85;100016.78;5073535;28;20024;-67
2022/02/25 11:13:01;;;;;;;12.73;4.57;;;;;;;6.24;37.78;100022.94;5073209;28;20470;-63
2022/02/25 11:15:32;;;;;;;9.25;4.38;;;;;;;6.29;37.42;100026.19;5073174;28;20028;-65
2022/02/25 11:17:58;;;;;;;6.38;4.13;;;;;;;6.20;37.09;100016.97;5052299;28;20037;-69
2022/02/25 11:20:29;;;;;;;5.65;4.07;;;;;;;6.19;37.08;100020.56;5052580;28;20091;-67
2022/02/25 11:23:04;;;;;;;4.88;3.72;;;;;;;6.18;37.63;100001.09;5072941;28;20041;-67
2022/02/25 11:25:31;;;;;;;7.40;3.90;;;;;;;6.10;37.15;100008.69;5072840;28;20123;-70